Petersburg, New York
Current Conditions -  °F | °C
As of 6:52 AM on Wednesday 28 Jan 2015 (Local Time) from KAQW Reporting Station
Overcast Overcast  
Wind Chill: -7°   Ceiling: 7000
Heat Index:   Visibility: 10mi
Dew Point:   Wind: 13mph
Humidity: 67%   Direction: 280°W
Pressure: 29.96"   Gusts: 28mph
Location:  42.75°N, 73.35°W
Report Text: KAQW 281152Z AUTO 28011G24KT 10SM OVC070 M13/M18 A2996 RMK AO2 PK WND 27026/1125 SLP160 60000 70009 T11281178 11122 21128 53037
Loading
Personal Weather Stations






























Interactive Weather Map New forecast layout! Learn more

10-Day Weather Forecast

Advertisements
Track Severe Weather on mobile